sensor_id;sensor_type;location;lat;lon;timestamp;temperature;humidity
48946;DHT22;34999;50.940;3.998;2023-02-28T00:01:32;-1.20;99.90
48946;DHT22;34999;50.940;3.998;2023-02-28T00:04:01;-1.30;99.90
48946;DHT22;34999;50.940;3.998;2023-02-28T00:06:30;-1.30;99.90
48946;DHT22;34999;50.940;3.998;2023-02-28T00:08:59;-1.30;99.90
48946;DHT22;34999;50.940;3.998;2023-02-28T00:11:27;-1.40;99.90
48946;DHT22;34999;50.940;3.998;2023-02-28T00:13:56;-1.40;99.90
48946;DHT22;34999;50.940;3.998;2023-02-28T00:16:24;-1.40;99.90
48946;DHT22;34999;50.940;3.998;2023-02-28T00:18:54;-1.40;99.90
48946;DHT22;34999;50.940;3.998;2023-02-28T00:21:24;-1.40;99.90
48946;DHT22;34999;50.940;3.998;2023-02-28T00:23:53;-1.50;99.90
48946;DHT22;34999;50.940;3.998;2023-02-28T00:26:22;-1.50;99.90
48946;DHT22;34999;50.940;3.998;2023-02-28T00:28:51;-1.50;99.90
48946;DHT22;34999;50.940;3.998;2023-02-28T00:31:20;-1.50;99.90
48946;DHT22;34999;50.940;3.998;2023-02-28T00:33:49;-1.50;99.90
48946;DHT22;34999;50.940;3.998;2023-02-28T00:36:20;-1.50;99.90
48946;DHT22;34999;50.940;3.998;2023-02-28T00:38:49;-1.60;99.90
48946;DHT22;34999;50.940;3.998;2023-02-28T00:41:17;-1.60;99.90
48946;DHT22;34999;50.940;3.998;2023-02-28T00:43:46;-1.60;99.90
48946;DHT22;34999;50.940;3.998;2023-02-28T00:46:14;-1.60;99.90
48946;DHT22;34999;50.940;3.998;2023-02-28T00:48:42;-1.60;99.90
48946;DHT22;34999;50.940;3.998;2023-02-28T00:51:11;-1.70;99.90
48946;DHT22;34999;50.940;3.998;2023-02-28T00:53:40;-1.70;99.90
48946;DHT22;34999;50.940;3.998;2023-02-28T00:56:08;-1.70;99.90
48946;DHT22;34999;50.940;3.998;2023-02-28T00:58:37;-1.70;99.90
48946;DHT22;34999;50.940;3.998;2023-02-28T01:01:05;-1.80;99.90
48946;DHT22;34999;50.940;3.998;2023-02-28T01:03:33;-1.80;99.90
48946;DHT22;34999;50.940;3.998;2023-02-28T01:06:01;-1.80;99.90
48946;DHT22;34999;50.940;3.998;2023-02-28T01:08:30;-1.80;99.90
48946;DHT22;34999;50.940;3.998;2023-02-28T01:11:07;-1.80;99.90
48946;DHT22;34999;50.940;3.998;2023-02-28T01:13:36;-1.90;99.90
48946;DHT22;34999;50.940;3.998;2023-02-28T01:16:05;-1.90;99.90
48946;DHT22;34999;50.940;3.998;2023-02-28T01:18:34;-1.90;99.90
48946;DHT22;34999;50.940;3.998;2023-02-28T01:21:03;-1.90;99.90
48946;DHT22;34999;50.940;3.998;2023-02-28T01:23:32;-1.90;99.90
48946;DHT22;34999;50.940;3.998;2023-02-28T01:26:05;-1.80;99.90
48946;DHT22;34999;50.940;3.998;2023-02-28T01:28:34;-1.90;99.90
48946;DHT22;34999;50.940;3.998;2023-02-28T01:31:02;-1.90;99.90
48946;DHT22;34999;50.940;3.998;2023-02-28T01:33:31;-1.90;99.90
48946;DHT22;34999;50.940;3.998;2023-02-28T01:36:00;-1.90;99.90
48946;DHT22;34999;50.940;3.998;2023-02-28T01:38:29;-1.90;99.90
48946;DHT22;34999;50.940;3.998;2023-02-28T01:40:57;-1.90;99.90
48946;DHT22;34999;50.940;3.998;2023-02-28T01:43:28;-2.00;99.90
48946;DHT22;34999;50.940;3.998;2023-02-28T01:45:57;-1.90;99.90
48946;DHT22;34999;50.940;3.998;2023-02-28T01:48:28;-2.00;99.90
48946;DHT22;34999;50.940;3.998;2023-02-28T01:51:01;-1.90;99.90
48946;DHT22;34999;50.940;3.998;2023-02-28T01:53:36;-1.90;99.90
48946;DHT22;34999;50.940;3.998;2023-02-28T01:56:06;-1.80;99.90
48946;DHT22;34999;50.940;3.998;2023-02-28T01:58:37;-1.80;99.90
48946;DHT22;34999;50.940;3.998;2023-02-28T02:01:05;-1.80;99.90
48946;DHT22;34999;50.940;3.998;2023-02-28T02:03:35;-1.80;99.90
48946;DHT22;34999;50.940;3.998;2023-02-28T02:06:04;-1.80;99.90
48946;DHT22;34999;50.940;3.998;2023-02-28T02:08:32;-1.90;99.90
48946;DHT22;34999;50.940;3.998;2023-02-28T02:11:03;-1.90;99.90
48946;DHT22;34999;50.940;3.998;2023-02-28T02:13:47;-1.90;99.90
48946;DHT22;34999;50.940;3.998;2023-02-28T02:16:34;-1.90;99.90
48946;DHT22;34999;50.940;3.998;2023-02-28T02:19:23;-2.00;99.90
48946;DHT22;34999;50.940;3.998;2023-02-28T02:22:18;-2.00;99.90
48946;DHT22;34999;50.940;3.998;2023-02-28T02:25:03;-2.10;99.90
48946;DHT22;34999;50.940;3.998;2023-02-28T02:27:54;-2.10;99.90
48946;DHT22;34999;50.940;3.998;2023-02-28T02:30:58;-2.10;99.90
48946;DHT22;34999;50.940;3.998;2023-02-28T02:33:48;-2.10;99.90
48946;DHT22;34999;50.940;3.998;2023-02-28T02:36:23;-2.10;99.90
48946;DHT22;34999;50.940;3.998;2023-02-28T02:38:58;-2.10;99.90
48946;DHT22;34999;50.940;3.998;2023-02-28T02:41:34;-2.10;99.90
48946;DHT22;34999;50.940;3.998;2023-02-28T02:44:05;-2.10;99.90
48946;DHT22;34999;50.940;3.998;2023-02-28T02:46:40;-2.10;99.90
48946;DHT22;34999;50.940;3.998;2023-02-28T02:49:13;-2.20;99.90
48946;DHT22;34999;50.940;3.998;2023-02-28T02:51:46;-2.20;99.90
48946;DHT22;34999;50.940;3.998;2023-02-28T02:54:19;-2.20;99.90
48946;DHT22;34999;50.940;3.998;2023-02-28T02:56:50;-2.20;99.90
48946;DHT22;34999;50.940;3.998;2023-02-28T02:59:21;-2.20;99.90
48946;DHT22;34999;50.940;3.998;2023-02-28T03:01:53;-2.30;99.90
48946;DHT22;34999;50.940;3.998;2023-02-28T03:04:24;-2.30;99.90
48946;DHT22;34999;50.940;3.998;2023-02-28T03:06:55;-2.30;99.90
48946;DHT22;34999;50.940;3.998;2023-02-28T03:09:25;-2.30;99.90
48946;DHT22;34999;50.940;3.998;2023-02-28T03:11:55;-2.40;99.90
48946;DHT22;34999;50.940;3.998;2023-02-28T03:14:34;-2.40;99.90
48946;DHT22;34999;50.940;3.998;2023-02-28T03:17:24;-2.40;99.90
48946;DHT22;34999;50.940;3.998;2023-02-28T03:20:02;-2.40;99.90
48946;DHT22;34999;50.940;3.998;2023-02-28T03:22:50;-2.40;99.90
48946;DHT22;34999;50.940;3.998;2023-02-28T03:25:26;-2.40;99.90
48946;DHT22;34999;50.940;3.998;2023-02-28T03:28:01;-2.40;99.90
48946;DHT22;34999;50.940;3.998;2023-02-28T03:30:37;-2.40;99.90
48946;DHT22;34999;50.940;3.998;2023-02-28T03:33:08;-2.40;99.90
48946;DHT22;34999;50.940;3.998;2023-02-28T03:35:42;-2.50;99.90
48946;DHT22;34999;50.940;3.998;2023-02-28T03:38:17;-2.50;99.90
48946;DHT22;34999;50.940;3.998;2023-02-28T03:40:49;-2.50;99.90
48946;DHT22;34999;50.940;3.998;2023-02-28T03:43:23;-2.50;99.90
48946;DHT22;34999;50.940;3.998;2023-02-28T03:45:55;-2.60;99.90
48946;DHT22;34999;50.940;3.998;2023-02-28T03:48:27;-2.60;99.90
48946;DHT22;34999;50.940;3.998;2023-02-28T03:51:21;-2.60;99.90
48946;DHT22;34999;50.940;3.998;2023-02-28T03:53:53;-2.60;99.90
48946;DHT22;34999;50.940;3.998;2023-02-28T03:56:26;-2.70;99.90
48946;DHT22;34999;50.940;3.998;2023-02-28T03:58:58;-2.70;99.90
48946;DHT22;34999;50.940;3.998;2023-02-28T04:01:33;-2.70;99.90
48946;DHT22;34999;50.940;3.998;2023-02-28T04:04:03;-2.70;99.90
48946;DHT22;34999;50.940;3.998;2023-02-28T04:06:33;-2.70;99.90
48946;DHT22;34999;50.940;3.998;2023-02-28T04:09:04;-2.70;99.90
48946;DHT22;34999;50.940;3.998;2023-02-28T04:11:34;-2.70;99.90
48946;DHT22;34999;50.940;3.998;2023-02-28T04:14:02;-2.70;99.90
48946;DHT22;34999;50.940;3.998;2023-02-28T04:16:32;-2.70;99.90
48946;DHT22;34999;50.940;3.998;2023-02-28T04:19:02;-2.70;99.90
48946;DHT22;34999;50.940;3.998;2023-02-28T04:21:33;-2.70;99.90
48946;DHT22;34999;50.940;3.998;2023-02-28T04:24:04;-2.70;99.90
48946;DHT22;34999;50.940;3.998;2023-02-28T04:26:33;-2.80;99.90
48946;DHT22;34999;50.940;3.998;2023-02-28T04:29:03;-2.80;99.90
48946;DHT22;34999;50.940;3.998;2023-02-28T04:31:32;-2.80;99.90
48946;DHT22;34999;50.940;3.998;2023-02-28T04:34:01;-2.80;99.90
48946;DHT22;34999;50.940;3.998;2023-02-28T04:36:29;-2.90;99.90
48946;DHT22;34999;50.940;3.998;2023-02-28T04:38:57;-2.80;99.90
48946;DHT22;34999;50.940;3.998;2023-02-28T04:41:27;-2.80;99.90
48946;DHT22;34999;50.940;3.998;2023-02-28T04:43:58;-2.70;99.90
48946;DHT22;34999;50.940;3.998;2023-02-28T04:46:27;-2.60;99.90
48946;DHT22;34999;50.940;3.998;2023-02-28T04:48:57;-2.50;99.90
48946;DHT22;34999;50.940;3.998;2023-02-28T04:51:25;-2.40;99.90
48946;DHT22;34999;50.940;3.998;2023-02-28T04:53:54;-2.20;99.90
48946;DHT22;34999;50.940;3.998;2023-02-28T04:56:22;-2.20;99.90
48946;DHT22;34999;50.940;3.998;2023-02-28T04:58:52;-2.10;99.90
48946;DHT22;34999;50.940;3.998;2023-02-28T05:01:23;-2.00;99.90
48946;DHT22;34999;50.940;3.998;2023-02-28T05:03:53;-1.90;99.90
48946;DHT22;34999;50.940;3.998;2023-02-28T05:06:23;-1.80;99.90
48946;DHT22;34999;50.940;3.998;2023-02-28T05:08:52;-1.80;99.90
48946;DHT22;34999;50.940;3.998;2023-02-28T05:11:23;-1.70;99.90
48946;DHT22;34999;50.940;3.998;2023-02-28T05:13:53;-1.60;99.90
48946;DHT22;34999;50.940;3.998;2023-02-28T05:16:22;-1.60;99.90
48946;DHT22;34999;50.940;3.998;2023-02-28T05:18:50;-1.50;99.90
48946;DHT22;34999;50.940;3.998;2023-02-28T05:21:27;-1.50;99.90
48946;DHT22;34999;50.940;3.998;2023-02-28T05:23:57;-1.40;99.90
48946;DHT22;34999;50.940;3.998;2023-02-28T05:26:26;-1.40;99.90
48946;DHT22;34999;50.940;3.998;2023-02-28T05:28:56;-1.30;99.90
48946;DHT22;34999;50.940;3.998;2023-02-28T05:31:24;-1.30;99.90
48946;DHT22;34999;50.940;3.998;2023-02-28T05:33:53;-1.20;99.90
48946;DHT22;34999;50.940;3.998;2023-02-28T05:36:22;-1.20;99.90
48946;DHT22;34999;50.940;3.998;2023-02-28T05:38:51;-1.10;99.90
48946;DHT22;34999;50.940;3.998;2023-02-28T05:41:19;-1.10;99.90
48946;DHT22;34999;50.940;3.998;2023-02-28T05:43:48;-1.00;99.90
48946;DHT22;34999;50.940;3.998;2023-02-28T05:46:18;-1.00;99.90
48946;DHT22;34999;50.940;3.998;2023-02-28T05:48:47;-0.90;99.90
48946;DHT22;34999;50.940;3.998;2023-02-28T05:51:16;-0.90;99.90
48946;DHT22;34999;50.940;3.998;2023-02-28T05:53:44;-0.80;99.90
48946;DHT22;34999;50.940;3.998;2023-02-28T05:56:12;-0.80;99.90
48946;DHT22;34999;50.940;3.998;2023-02-28T05:58:41;-0.80;99.90
48946;DHT22;34999;50.940;3.998;2023-02-28T06:01:33;-0.70;99.90
48946;DHT22;34999;50.940;3.998;2023-02-28T06:04:03;-0.70;99.90
48946;DHT22;34999;50.940;3.998;2023-02-28T06:06:31;-0.60;99.90
48946;DHT22;34999;50.940;3.998;2023-02-28T06:09:03;-0.50;99.90
48946;DHT22;34999;50.940;3.998;2023-02-28T06:11:31;-0.50;99.90
48946;DHT22;34999;50.940;3.998;2023-02-28T06:14:00;-0.40;99.90
48946;DHT22;34999;50.940;3.998;2023-02-28T06:16:32;-0.40;99.90
48946;DHT22;34999;50.940;3.998;2023-02-28T06:19:02;-0.40;99.90
48946;DHT22;34999;50.940;3.998;2023-02-28T06:21:31;-0.30;99.90
48946;DHT22;34999;50.940;3.998;2023-02-28T06:24:00;-0.30;99.90
48946;DHT22;34999;50.940;3.998;2023-02-28T06:26:28;-0.30;99.90
48946;DHT22;34999;50.940;3.998;2023-02-28T06:28:57;-0.20;99.90
48946;DHT22;34999;50.940;3.998;2023-02-28T06:31:25;-0.20;99.90
48946;DHT22;34999;50.940;3.998;2023-02-28T06:33:57;-0.10;99.90
48946;DHT22;34999;50.940;3.998;2023-02-28T06:36:26;-0.10;99.90
48946;DHT22;34999;50.940;3.998;2023-02-28T06:38:54;-0.10;99.90
48946;DHT22;34999;50.940;3.998;2023-02-28T06:41:24;0.00;99.90
48946;DHT22;34999;50.940;3.998;2023-02-28T06:43:53;0.00;99.90
48946;DHT22;34999;50.940;3.998;2023-02-28T06:46:41;0.10;99.90
48946;DHT22;34999;50.940;3.998;2023-02-28T06:49:11;0.10;99.90
48946;DHT22;34999;50.940;3.998;2023-02-28T06:51:41;0.20;99.90
48946;DHT22;34999;50.940;3.998;2023-02-28T06:54:12;0.20;99.90
48946;DHT22;34999;50.940;3.998;2023-02-28T06:56:41;0.20;99.90
48946;DHT22;34999;50.940;3.998;2023-02-28T06:59:09;0.30;99.90
48946;DHT22;34999;50.940;3.998;2023-02-28T07:01:37;0.40;99.90
48946;DHT22;34999;50.940;3.998;2023-02-28T07:04:06;0.40;99.90
48946;DHT22;34999;50.940;3.998;2023-02-28T07:06:35;0.40;99.90
48946;DHT22;34999;50.940;3.998;2023-02-28T07:09:04;0.50;99.90
48946;DHT22;34999;50.940;3.998;2023-02-28T07:11:32;0.50;99.90
48946;DHT22;34999;50.940;3.998;2023-02-28T07:14:01;0.60;99.90
48946;DHT22;34999;50.940;3.998;2023-02-28T07:16:29;0.60;99.90
48946;DHT22;34999;50.940;3.998;2023-02-28T07:18:57;0.70;99.90
48946;DHT22;34999;50.940;3.998;2023-02-28T07:21:26;0.70;99.90
48946;DHT22;34999;50.940;3.998;2023-02-28T07:23:56;0.80;99.90
48946;DHT22;34999;50.940;3.998;2023-02-28T07:26:24;0.80;99.90
48946;DHT22;34999;50.940;3.998;2023-02-28T07:28:53;0.90;99.90
48946;DHT22;34999;50.940;3.998;2023-02-28T07:31:21;1.00;99.90
48946;DHT22;34999;50.940;3.998;2023-02-28T07:33:49;1.00;99.90
48946;DHT22;34999;50.940;3.998;2023-02-28T07:36:18;1.10;99.90
48946;DHT22;34999;50.940;3.998;2023-02-28T07:38:47;1.20;99.90
48946;DHT22;34999;50.940;3.998;2023-02-28T07:41:20;1.30;99.90
48946;DHT22;34999;50.940;3.998;2023-02-28T07:43:48;1.40;99.90
48946;DHT22;34999;50.940;3.998;2023-02-28T07:46:17;1.60;99.90
48946;DHT22;34999;50.940;3.998;2023-02-28T07:48:48;1.60;99.90
48946;DHT22;34999;50.940;3.998;2023-02-28T07:51:16;1.70;99.90
48946;DHT22;34999;50.940;3.998;2023-02-28T07:53:44;1.80;99.90
48946;DHT22;34999;50.940;3.998;2023-02-28T07:56:12;1.90;99.90
48946;DHT22;34999;50.940;3.998;2023-02-28T07:58:42;2.00;99.90
48946;DHT22;34999;50.940;3.998;2023-02-28T08:01:11;2.20;99.90
48946;DHT22;34999;50.940;3.998;2023-02-28T08:03:39;2.40;99.90
48946;DHT22;34999;50.940;3.998;2023-02-28T08:06:15;2.50;99.90
48946;DHT22;34999;50.940;3.998;2023-02-28T08:08:44;2.70;99.90
48946;DHT22;34999;50.940;3.998;2023-02-28T08:11:12;2.80;99.90
48946;DHT22;34999;50.940;3.998;2023-02-28T08:13:42;2.80;99.90
48946;DHT22;34999;50.940;3.998;2023-02-28T08:16:12;2.80;99.90
48946;DHT22;34999;50.940;3.998;2023-02-28T08:18:44;2.80;99.90
48946;DHT22;34999;50.940;3.998;2023-02-28T08:21:12;3.00;99.90
48946;DHT22;34999;50.940;3.998;2023-02-28T08:23:41;3.00;99.90
48946;DHT22;34999;50.940;3.998;2023-02-28T08:26:09;2.90;99.90
48946;DHT22;34999;50.940;3.998;2023-02-28T08:28:38;2.90;99.90
48946;DHT22;34999;50.940;3.998;2023-02-28T08:31:09;2.90;99.90
48946;DHT22;34999;50.940;3.998;2023-02-28T08:33:39;3.00;99.90
48946;DHT22;34999;50.940;3.998;2023-02-28T08:36:08;2.90;99.90
48946;DHT22;34999;50.940;3.998;2023-02-28T08:38:37;3.00;99.90
48946;DHT22;34999;50.940;3.998;2023-02-28T08:41:07;3.00;99.90
48946;DHT22;34999;50.940;3.998;2023-02-28T08:43:36;3.10;99.90
48946;DHT22;34999;50.940;3.998;2023-02-28T08:46:05;3.30;99.90
48946;DHT22;34999;50.940;3.998;2023-02-28T08:48:35;3.30;99.90
48946;DHT22;34999;50.940;3.998;2023-02-28T08:51:07;3.50;99.90
48946;DHT22;34999;50.940;3.998;2023-02-28T08:53:37;3.70;99.90
48946;DHT22;34999;50.940;3.998;2023-02-28T08:56:07;3.80;99.90
48946;DHT22;34999;50.940;3.998;2023-02-28T08:58:36;3.90;99.90
48946;DHT22;34999;50.940;3.998;2023-02-28T09:01:09;3.90;99.90
48946;DHT22;34999;50.940;3.998;2023-02-28T09:03:41;4.00;99.90
48946;DHT22;34999;50.940;3.998;2023-02-28T09:06:14;4.00;99.90
48946;DHT22;34999;50.940;3.998;2023-02-28T09:08:42;3.90;99.90
48946;DHT22;34999;50.940;3.998;2023-02-28T09:11:11;3.90;99.90
48946;DHT22;34999;50.940;3.998;2023-02-28T09:13:40;3.90;99.90
48946;DHT22;34999;50.940;3.998;2023-02-28T09:16:11;4.00;99.90
48946;DHT22;34999;50.940;3.998;2023-02-28T09:18:41;4.00;99.90
48946;DHT22;34999;50.940;3.998;2023-02-28T09:21:12;4.00;99.90
48946;DHT22;34999;50.940;3.998;2023-02-28T09:23:41;4.10;99.90
48946;DHT22;34999;50.940;3.998;2023-02-28T09:26:14;3.90;99.90
48946;DHT22;34999;50.940;3.998;2023-02-28T09:28:43;4.00;99.90
48946;DHT22;34999;50.940;3.998;2023-02-28T09:31:12;4.00;99.90
48946;DHT22;34999;50.940;3.998;2023-02-28T09:33:42;4.30;99.90
48946;DHT22;34999;50.940;3.998;2023-02-28T09:36:10;4.30;99.90
48946;DHT22;34999;50.940;3.998;2023-02-28T09:38:39;4.30;99.90
48946;DHT22;34999;50.940;3.998;2023-02-28T09:41:12;4.30;99.90
48946;DHT22;34999;50.940;3.998;2023-02-28T09:43:45;4.20;99.90
48946;DHT22;34999;50.940;3.998;2023-02-28T09:46:25;4.30;99.90
48946;DHT22;34999;50.940;3.998;2023-02-28T09:48:59;4.30;99.90
48946;DHT22;34999;50.940;3.998;2023-02-28T09:51:37;4.70;99.90
48946;DHT22;34999;50.940;3.998;2023-02-28T09:54:13;5.20;99.90
48946;DHT22;34999;50.940;3.998;2023-02-28T09:56:48;6.20;99.90
48946;DHT22;34999;50.940;3.998;2023-02-28T09:59:39;7.10;99.90
48946;DHT22;34999;50.940;3.998;2023-02-28T10:02:19;7.30;99.90
48946;DHT22;34999;50.940;3.998;2023-02-28T10:04:54;7.30;99.90
48946;DHT22;34999;50.940;3.998;2023-02-28T10:07:37;7.90;99.90
48946;DHT22;34999;50.940;3.998;2023-02-28T10:10:18;8.20;99.90
48946;DHT22;34999;50.940;3.998;2023-02-28T10:12:48;8.00;99.90
48946;DHT22;34999;50.940;3.998;2023-02-28T10:15:23;8.40;99.90
48946;DHT22;34999;50.940;3.998;2023-02-28T10:17:56;9.00;99.90
48946;DHT22;34999;50.940;3.998;2023-02-28T10:20:39;8.80;99.90
48946;DHT22;34999;50.940;3.998;2023-02-28T10:23:13;8.80;99.90
48946;DHT22;34999;50.940;3.998;2023-02-28T10:25:45;8.70;99.90
48946;DHT22;34999;50.940;3.998;2023-02-28T10:28:16;9.00;99.90
48946;DHT22;34999;50.940;3.998;2023-02-28T10:30:48;9.20;99.90
48946;DHT22;34999;50.940;3.998;2023-02-28T10:33:23;9.10;99.90
48946;DHT22;34999;50.940;3.998;2023-02-28T10:35:53;8.70;99.90
48946;DHT22;34999;50.940;3.998;2023-02-28T10:38:23;8.60;99.90
48946;DHT22;34999;50.940;3.998;2023-02-28T10:40:52;9.00;99.90
48946;DHT22;34999;50.940;3.998;2023-02-28T10:43:31;8.70;99.90
48946;DHT22;34999;50.940;3.998;2023-02-28T10:46:03;8.80;99.90
48946;DHT22;34999;50.940;3.998;2023-02-28T10:48:34;8.50;99.90
48946;DHT22;34999;50.940;3.998;2023-02-28T10:51:07;7.90;99.90
48946;DHT22;34999;50.940;3.998;2023-02-28T10:53:38;8.10;99.90
48946;DHT22;34999;50.940;3.998;2023-02-28T10:56:27;8.50;99.90
48946;DHT22;34999;50.940;3.998;2023-02-28T10:58:59;8.60;99.90
48946;DHT22;34999;50.940;3.998;2023-02-28T11:01:36;8.80;99.90
48946;DHT22;34999;50.940;3.998;2023-02-28T11:04:17;9.00;99.90
48946;DHT22;34999;50.940;3.998;2023-02-28T11:06:51;9.10;99.90
48946;DHT22;34999;50.940;3.998;2023-02-28T11:09:27;8.90;99.90
48946;DHT22;34999;50.940;3.998;2023-02-28T11:11:57;9.30;99.90
48946;DHT22;34999;50.940;3.998;2023-02-28T11:14:27;9.20;99.90
48946;DHT22;34999;50.940;3.998;2023-02-28T11:17:03;8.90;99.90
48946;DHT22;34999;50.940;3.998;2023-02-28T11:19:44;8.80;99.90
48946;DHT22;34999;50.940;3.998;2023-02-28T11:22:19;8.80;99.90
48946;DHT22;34999;50.940;3.998;2023-02-28T11:24:51;8.60;99.90
48946;DHT22;34999;50.940;3.998;2023-02-28T11:27:45;8.20;99.90
48946;DHT22;34999;50.940;3.998;2023-02-28T11:30:28;8.60;99.90
48946;DHT22;34999;50.940;3.998;2023-02-28T11:32:56;9.10;99.90
48946;DHT22;34999;50.940;3.998;2023-02-28T11:35:29;9.20;98.40
48946;DHT22;34999;50.940;3.998;2023-02-28T11:38:00;9.30;98.90
48946;DHT22;34999;50.940;3.998;2023-02-28T11:40:34;9.00;97.70
48946;DHT22;34999;50.940;3.998;2023-02-28T11:43:18;8.90;98.10
48946;DHT22;34999;50.940;3.998;2023-02-28T11:46:03;9.30;99.10
48946;DHT22;34999;50.940;3.998;2023-02-28T11:48:40;9.40;97.40
48946;DHT22;34999;50.940;3.998;2023-02-28T11:51:17;9.50;96.80
48946;DHT22;34999;50.940;3.998;2023-02-28T11:54:29;9.80;97.80
48946;DHT22;34999;50.940;3.998;2023-02-28T11:57:08;9.90;96.70
48946;DHT22;34999;50.940;3.998;2023-02-28T11:59:51;9.30;96.10
48946;DHT22;34999;50.940;3.998;2023-02-28T12:02:26;9.90;95.90
48946;DHT22;34999;50.940;3.998;2023-02-28T12:05:11;9.60;95.30
48946;DHT22;34999;50.940;3.998;2023-02-28T12:07:49;9.50;95.00
48946;DHT22;34999;50.940;3.998;2023-02-28T12:10:24;9.70;94.50
48946;DHT22;34999;50.940;3.998;2023-02-28T12:13:05;9.50;94.10
48946;DHT22;34999;50.940;3.998;2023-02-28T12:15:47;9.40;95.80
48946;DHT22;34999;50.940;3.998;2023-02-28T12:18:28;9.30;95.00
48946;DHT22;34999;50.940;3.998;2023-02-28T12:21:03;9.00;95.20
48946;DHT22;34999;50.940;3.998;2023-02-28T12:23:44;9.30;95.90
48946;DHT22;34999;50.940;3.998;2023-02-28T12:26:20;9.60;95.20
48946;DHT22;34999;50.940;3.998;2023-02-28T12:28:57;9.30;94.20
48946;DHT22;34999;50.940;3.998;2023-02-28T12:31:31;8.70;94.80
48946;DHT22;34999;50.940;3.998;2023-02-28T12:34:06;8.90;95.00
48946;DHT22;34999;50.940;3.998;2023-02-28T12:36:36;8.80;95.20
48946;DHT22;34999;50.940;3.998;2023-02-28T12:39:10;9.10;95.30
48946;DHT22;34999;50.940;3.998;2023-02-28T12:41:45;9.00;95.00
48946;DHT22;34999;50.940;3.998;2023-02-28T12:44:18;8.70;95.90
48946;DHT22;34999;50.940;3.998;2023-02-28T12:46:51;8.80;95.60
48946;DHT22;34999;50.940;3.998;2023-02-28T12:49:25;8.70;95.40
48946;DHT22;34999;50.940;3.998;2023-02-28T12:51:59;8.90;95.80
48946;DHT22;34999;50.940;3.998;2023-02-28T12:54:32;8.60;95.60
48946;DHT22;34999;50.940;3.998;2023-02-28T12:57:11;8.30;95.60
48946;DHT22;34999;50.940;3.998;2023-02-28T12:59:46;8.20;96.60
48946;DHT22;34999;50.940;3.998;2023-02-28T13:06:02;8.30;96.10
48946;DHT22;34999;50.940;3.998;2023-02-28T13:08:59;8.20;96.30
48946;DHT22;34999;50.940;3.998;2023-02-28T13:11:31;8.20;96.40
48946;DHT22;34999;50.940;3.998;2023-02-28T13:14:05;8.30;96.40
48946;DHT22;34999;50.940;3.998;2023-02-28T13:16:51;8.50;95.90
48946;DHT22;34999;50.940;3.998;2023-02-28T13:19:22;8.30;95.40
48946;DHT22;34999;50.940;3.998;2023-02-28T13:21:52;7.80;96.20
48946;DHT22;34999;50.940;3.998;2023-02-28T13:24:43;7.40;96.60
48946;DHT22;34999;50.940;3.998;2023-02-28T13:33:24;7.70;96.10
48946;DHT22;34999;50.940;3.998;2023-02-28T13:36:24;7.80;97.50
48946;DHT22;34999;50.940;3.998;2023-02-28T13:38:54;7.80;97.30
48946;DHT22;34999;50.940;3.998;2023-02-28T13:41:47;7.50;97.30
48946;DHT22;34999;50.940;3.998;2023-02-28T13:44:18;7.30;97.30
48946;DHT22;34999;50.940;3.998;2023-02-28T13:49:53;7.40;96.70
48946;DHT22;34999;50.940;3.998;2023-02-28T13:52:23;7.30;96.50
48946;DHT22;34999;50.940;3.998;2023-02-28T13:55:13;7.20;97.00
48946;DHT22;34999;50.940;3.998;2023-02-28T13:58:03;7.10;96.30
48946;DHT22;34999;50.940;3.998;2023-02-28T14:00:43;7.20;96.20
48946;DHT22;34999;50.940;3.998;2023-02-28T14:03:35;7.00;96.50
48946;DHT22;34999;50.940;3.998;2023-02-28T14:06:21;7.00;96.50
48946;DHT22;34999;50.940;3.998;2023-02-28T14:08:54;7.20;97.20
48946;DHT22;34999;50.940;3.998;2023-02-28T14:11:27;7.40;96.70
48946;DHT22;34999;50.940;3.998;2023-02-28T14:13:56;7.40;96.20
48946;DHT22;34999;50.940;3.998;2023-02-28T14:16:26;7.40;96.50
48946;DHT22;34999;50.940;3.998;2023-02-28T14:19:00;7.20;96.70
48946;DHT22;34999;50.940;3.998;2023-02-28T14:21:34;7.20;96.80
48946;DHT22;34999;50.940;3.998;2023-02-28T14:24:25;7.30;96.90
48946;DHT22;34999;50.940;3.998;2023-02-28T14:27:09;7.30;96.90
48946;DHT22;34999;50.940;3.998;2023-02-28T14:33:11;7.20;96.50
48946;DHT22;34999;50.940;3.998;2023-02-28T14:38:41;7.10;96.90
48946;DHT22;34999;50.940;3.998;2023-02-28T14:41:21;7.10;98.20
48946;DHT22;34999;50.940;3.998;2023-02-28T14:43:55;7.30;98.00
48946;DHT22;34999;50.940;3.998;2023-02-28T14:46:27;7.30;97.30
48946;DHT22;34999;50.940;3.998;2023-02-28T14:48:57;7.40;97.70
48946;DHT22;34999;50.940;3.998;2023-02-28T14:51:26;7.50;96.40
48946;DHT22;34999;50.940;3.998;2023-02-28T14:54:00;7.30;96.50
48946;DHT22;34999;50.940;3.998;2023-02-28T14:56:34;7.40;97.20
48946;DHT22;34999;50.940;3.998;2023-02-28T14:59:03;7.40;97.10
48946;DHT22;34999;50.940;3.998;2023-02-28T15:01:31;7.40;96.90
48946;DHT22;34999;50.940;3.998;2023-02-28T15:04:04;7.50;97.30
48946;DHT22;34999;50.940;3.998;2023-02-28T15:06:33;7.60;97.70
48946;DHT22;34999;50.940;3.998;2023-02-28T15:09:15;7.40;96.70
48946;DHT22;34999;50.940;3.998;2023-02-28T15:11:47;7.20;97.50
48946;DHT22;34999;50.940;3.998;2023-02-28T15:14:19;7.00;97.30
48946;DHT22;34999;50.940;3.998;2023-02-28T15:16:52;6.90;97.30
48946;DHT22;34999;50.940;3.998;2023-02-28T15:19:24;6.90;97.60
48946;DHT22;34999;50.940;3.998;2023-02-28T15:21:57;7.00;98.10
48946;DHT22;34999;50.940;3.998;2023-02-28T15:24:36;6.90;97.40
48946;DHT22;34999;50.940;3.998;2023-02-28T15:27:07;6.80;97.90
48946;DHT22;34999;50.940;3.998;2023-02-28T15:29:45;6.90;98.70
48946;DHT22;34999;50.940;3.998;2023-02-28T15:32:24;6.90;98.30
48946;DHT22;34999;50.940;3.998;2023-02-28T15:34:54;6.90;98.80
48946;DHT22;34999;50.940;3.998;2023-02-28T15:37:37;6.90;98.60
48946;DHT22;34999;50.940;3.998;2023-02-28T15:40:14;6.90;99.10
48946;DHT22;34999;50.940;3.998;2023-02-28T15:42:56;7.00;98.60
48946;DHT22;34999;50.940;3.998;2023-02-28T15:45:32;7.00;99.00
48946;DHT22;34999;50.940;3.998;2023-02-28T15:48:05;6.80;99.50
48946;DHT22;34999;50.940;3.998;2023-02-28T15:50:41;6.90;99.80
48946;DHT22;34999;50.940;3.998;2023-02-28T15:53:15;6.80;99.20
48946;DHT22;34999;50.940;3.998;2023-02-28T15:55:53;6.60;99.70
48946;DHT22;34999;50.940;3.998;2023-02-28T15:58:22;6.60;99.90
48946;DHT22;34999;50.940;3.998;2023-02-28T16:01:07;6.60;99.70
48946;DHT22;34999;50.940;3.998;2023-02-28T16:03:40;6.50;99.90
48946;DHT22;34999;50.940;3.998;2023-02-28T16:06:17;6.50;99.70
48946;DHT22;34999;50.940;3.998;2023-02-28T16:08:49;6.40;99.90
48946;DHT22;34999;50.940;3.998;2023-02-28T16:11:20;6.30;99.90
48946;DHT22;34999;50.940;3.998;2023-02-28T16:13:53;6.20;99.90
48946;DHT22;34999;50.940;3.998;2023-02-28T16:16:24;6.10;99.90
48946;DHT22;34999;50.940;3.998;2023-02-28T16:18:53;6.10;99.90
48946;DHT22;34999;50.940;3.998;2023-02-28T16:21:25;6.00;99.80
48946;DHT22;34999;50.940;3.998;2023-02-28T16:23:54;5.90;99.90
48946;DHT22;34999;50.940;3.998;2023-02-28T16:26:24;5.80;99.90
48946;DHT22;34999;50.940;3.998;2023-02-28T16:28:54;5.90;99.90
48946;DHT22;34999;50.940;3.998;2023-02-28T16:31:22;6.00;99.90
48946;DHT22;34999;50.940;3.998;2023-02-28T16:33:50;5.90;99.90
48946;DHT22;34999;50.940;3.998;2023-02-28T16:36:21;5.90;99.90